Summit Argo, IL (60501)

09:09 PM CDT del 29 Agosto 2014 (GMT -0500)
Garfield Ridge | Change Station
CLOSE
Current Station
Stazione meteo personale
Location: Chicago, IL
Altitudine: 604 ft
Stazioni meteo nelle vicinanze

Alt. 604 ft 41.78 °N, 87.79 °W | Updated 4 seconds ago

Mostly Cloudy
Molto nuvoloso
79.3 °F
Sembra 83 °F
N
3.8
Vento Variabile Vento da SE
Gusts 3.8 mph

Oggi
Massima -- | Minima -- °F
--% Possibilità di precip.
Ieri
Massima -- | Minima -- °F
Precip. -- in
6:14 AM 7:29 PM
Luna crescente, 18% visible
Pressione 29.86 in
Visibilità 10.0 miglia
Nuvole Alcuni 5000 ft
Alcuni 7000 ft
Nubi sparse 15000 ft
Molto nuvoloso 20000 ft
Indice di calore 83 °F
Punto di rugiada 72 °F
Umidità 77%
Piovosità 0.00 in
Spessore del manto nevoso Non disponibile.
Raggi UV 0 fuori da 12
Polline 4.40 fuori da 12
Ozono Buono
PM2.5 Moderato
Flu Activity Non disponibile.
METAR KMDW 300151Z 17007KT 10SM FEW050 FEW070 SCT150 BKN200 27/21 A2989 RMK AO2 SLP111 FRQ LTGICCC DSNT W-NW CB DSNT W-NW T02670211

More Conditions Fewer Conditions

Pressione 29.86 in
Visibilità 10.0 miglia
Nuvole Alcuni 5000 ft
Alcuni 7000 ft
Nubi sparse 15000 ft
Molto nuvoloso 20000 ft
Indice di calore 83 °F
Punto di rugiada 72 °F
Umidità 77%
Piovosità 0.00 in
Spessore del manto nevoso Non disponibile.
Raggi UV 0 fuori da 12
Polline 4.40 fuori da 12
Ozono Buono
PM2.5 Moderato
Flu Activity Non disponibile.
METAR KMDW 300151Z 17007KT 10SM FEW050 FEW070 SCT150 BKN200 27/21 A2989 RMK AO2 SLP111 FRQ LTGICCC DSNT W-NW CB DSNT W-NW T02670211

More Conditions Fewer Conditions

10-Day Weather Forecast

Almanac

Astronomia

Aug. 29, 2014 Alba Tramonto
Ora attuale 06:14 CDT 19:29 CDT
Crepuscolo civile 05:45 CDT 19:58 CDT
Crepuscolo nautico 05:10 CDT 20:32 CDT
Crepuscolo astronomico 04:34 CDT 21:08 CDT
Luna 10:07 CDT (8/29) 21:22 CDT (8/29)
Estensione della luce visibile 14h 13m
Lunghezza del giorno
13h 15m
Tomorrow will be 2m 40s shorter.
Luna crescente, 18% of the Moon is Illuminated
Oggi
Luna crescente
Set 2
Primo quarto
Set 8
Luna piena
Set 15
Ultimo quarto
Set 24
Nuovo

Gli estremi di oggi

State Highs State Lows

Community

WunderPhotos

Upload Photos

1,748,405 foto caricate!

Nearby

Qualità dell'aria

  Qualità dell'aria Indice AQ Inquinante
Ieri Buono
PM2.5
Ieri Buono
OZONE
Attuale Moderato
PM2.5
Attuale Buono
OZONE
Venerdì Moderato
PM2.5
Venerdì Buono
OZONE
Sabato Moderato
PM2.5
Sabato Buono
OZONE
Domenica Moderato
OZONE
Domenica Buono
PM2.5
Lunedì Moderato
PM2.5
Lunedì Buono
OZONE
Martedì Buono
OZONE
Martedì Buono
PM2.5

Profondità neve

Stazione Profondità Altitudine
Non sono state evidenziate nuove nevicate

Attività sismica

Città  Distanza Mag. Data & Ora
Non sono state riportate attività sismiche nelle vicinanze.
Minimo Magnitudo Mostrato è 2.5.

Temperature delle acque costiere

Località Temperatura
Nessun dato dalle stazioni

Stazioni meteo nelle vicinanze